createdAt,value
2022-09-20T00:02:15.701Z,100039.84
2022-09-20T00:04:42.086Z,100047.78
2022-09-20T00:07:10.279Z,100042.63
2022-09-20T00:09:36.647Z,100045.41
2022-09-20T00:12:02.928Z,100050.16
2022-09-20T00:14:29.255Z,100048.56
2022-09-20T00:16:55.650Z,100050.97
2022-09-20T00:19:22.025Z,100050.97
2022-09-20T00:21:49.249Z,100050.16
2022-09-20T00:24:16.455Z,100050.16
2022-09-20T00:26:42.852Z,100052.16
2022-09-20T00:29:10.095Z,100052.56
2022-09-20T00:31:36.495Z,100054.56
2022-09-20T00:34:02.873Z,100058.53
2022-09-20T00:36:29.216Z,100056.56
2022-09-20T00:38:55.544Z,100057.34
2022-09-20T00:41:21.849Z,100052.97
2022-09-20T00:43:48.158Z,100058.53
2022-09-20T00:46:15.448Z,100058.94
2022-09-20T00:48:41.828Z,100058.56
2022-09-20T00:51:09.028Z,100059.75
2022-09-20T00:53:36.511Z,100051.81
2022-09-20T00:56:02.850Z,100057.41
2022-09-20T00:58:29.162Z,100052.22
2022-09-20T01:00:55.532Z,100051.00
2022-09-20T01:03:21.902Z,100058.16
2022-09-20T01:05:48.275Z,100056.19
2022-09-20T01:08:14.631Z,100051.88
2022-09-20T01:10:40.978Z,100045.09
2022-09-20T01:13:07.300Z,100055.00
2022-09-20T01:15:33.609Z,100047.88
2022-09-20T01:18:02.686Z,100055.81
2022-09-20T01:20:29.009Z,100049.06
2022-09-20T01:22:55.372Z,100056.59
2022-09-20T01:25:21.697Z,100057.81
2022-09-20T01:27:48.036Z,100059.00
2022-09-20T01:30:14.379Z,100059.81
2022-09-20T01:32:40.691Z,100063.38
2022-09-20T01:35:07.035Z,100070.53
2022-09-20T01:37:33.366Z,100066.97
2022-09-20T01:39:59.745Z,100068.97
2022-09-20T01:42:26.108Z,100077.31
2022-09-20T01:44:52.506Z,100072.94
2022-09-20T01:47:18.841Z,100082.88
2022-09-20T01:49:45.185Z,100069.38
2022-09-20T01:52:12.384Z,100076.50
2022-09-20T01:54:38.680Z,100072.91
2022-09-20T01:57:05.036Z,100065.38
2022-09-20T01:59:31.723Z,100071.72
2022-09-20T02:01:58.519Z,100077.28
2022-09-20T02:04:24.885Z,100068.56
2022-09-20T02:06:51.268Z,100074.13
2022-09-20T02:09:18.459Z,100075.72
2022-09-20T02:11:44.784Z,100073.31
2022-09-20T02:14:11.122Z,100080.09
2022-09-20T02:16:37.501Z,100079.28
2022-09-20T02:19:03.908Z,100080.13
2022-09-20T02:21:30.228Z,100074.56
2022-09-20T02:23:56.581Z,100078.53
2022-09-20T02:26:22.919Z,100075.34
2022-09-20T02:28:49.523Z,100076.13
2022-09-20T02:31:15.892Z,100080.13
2022-09-20T02:33:42.234Z,100082.09
2022-09-20T02:36:09.446Z,100086.47
2022-09-20T02:38:35.759Z,100086.09
2022-09-20T02:41:02.076Z,100098.41
2022-09-20T02:43:28.370Z,100088.50
2022-09-20T02:45:54.735Z,100086.13
2022-09-20T02:48:21.088Z,100092.47
2022-09-20T02:50:47.410Z,100088.91
2022-09-20T02:53:14.590Z,100087.69
2022-09-20T02:55:40.916Z,100092.47
2022-09-20T02:58:07.259Z,100085.31
2022-09-20T03:00:33.585Z,100092.09
2022-09-20T03:02:59.932Z,100091.72
2022-09-20T03:05:26.267Z,100098.84
2022-09-20T03:07:52.579Z,100094.13
2022-09-20T03:10:18.904Z,100092.94
2022-09-20T03:12:45.250Z,100101.25
2022-09-20T03:15:11.605Z,100099.69
2022-09-20T03:17:37.930Z,100108.00
2022-09-20T03:20:04.310Z,100106.00
2022-09-20T03:22:30.632Z,100113.94
2022-09-20T03:24:56.974Z,100108.38
2022-09-20T03:27:23.295Z,100108.38
2022-09-20T03:29:49.610Z,100111.16
2022-09-20T03:32:16.012Z,100100.03
2022-09-20T03:34:42.394Z,100096.44
2022-09-20T03:37:08.765Z,100114.31
2022-09-20T03:39:35.089Z,100113.53
2022-09-20T03:42:01.482Z,100110.34
2022-09-20T03:44:27.790Z,100113.97
2022-09-20T03:46:54.114Z,100108.81
2022-09-20T03:49:20.429Z,100117.91
2022-09-20T03:51:46.746Z,100114.31
2022-09-20T03:54:13.088Z,100115.09
2022-09-20T03:56:39.447Z,100116.69
2022-09-20T03:59:05.861Z,100114.38
2022-09-20T04:01:32.304Z,100117.91
2022-09-20T04:03:58.674Z,100123.94
2022-09-20T04:06:25.063Z,100117.97
2022-09-20T04:08:51.390Z,100119.56
2022-09-20T04:11:18.622Z,100124.34
2022-09-20T04:13:44.944Z,100130.31
2022-09-20T04:16:14.106Z,100133.09
2022-09-20T04:18:41.348Z,100136.28
2022-09-20T04:21:07.771Z,100136.66
2022-09-20T04:23:34.118Z,100146.22
2022-09-20T04:26:00.453Z,100143.81
2022-09-20T04:28:26.824Z,100144.22
2022-09-20T04:30:53.161Z,100141.84
2022-09-20T04:33:19.588Z,100147.41
2022-09-20T04:35:46.776Z,100150.16
2022-09-20T04:38:13.178Z,100143.00
2022-09-20T04:40:40.764Z,100151.34
2022-09-20T04:43:07.371Z,100148.97
2022-09-20T04:45:34.136Z,100164.47
2022-09-20T04:48:00.789Z,100158.25
2022-09-20T04:50:27.463Z,100160.69
2022-09-20T04:52:56.837Z,100167.81
2022-09-20T04:55:23.264Z,100165.03
2022-09-20T04:57:49.607Z,100169.81
2022-09-20T05:00:15.930Z,100177.72
2022-09-20T05:02:42.331Z,100180.84
2022-09-20T05:05:08.725Z,100180.00
2022-09-20T05:07:35.115Z,100183.56
2022-09-20T05:10:01.423Z,100193.88
2022-09-20T05:12:27.761Z,100191.06
2022-09-20T05:14:54.094Z,100197.41
2022-09-20T05:17:20.449Z,100204.56
2022-09-20T05:19:46.781Z,100207.38
2022-09-20T05:22:13.184Z,100214.09
2022-09-20T05:24:39.535Z,100210.13
2022-09-20T05:27:05.889Z,100217.25
2022-09-20T05:29:32.199Z,100218.06
2022-09-20T05:31:58.613Z,100213.28
2022-09-20T05:34:24.994Z,100211.69
2022-09-20T05:36:51.305Z,100213.69
2022-09-20T05:39:18.500Z,100217.25
2022-09-20T05:41:44.822Z,100218.47
2022-09-20T05:44:11.135Z,100226.78
2022-09-20T05:46:37.523Z,100225.56
2022-09-20T05:49:03.885Z,100230.34
2022-09-20T05:51:30.206Z,100233.50
2022-09-20T05:53:56.537Z,100228.78
2022-09-20T05:56:22.874Z,100232.34
2022-09-20T05:58:49.265Z,100233.53
2022-09-20T06:01:15.621Z,100226.38
2022-09-20T06:03:41.976Z,100235.50
2022-09-20T06:06:08.296Z,100233.13
2022-09-20T06:08:34.632Z,100232.72
2022-09-20T06:11:00.971Z,100241.81
2022-09-20T06:13:27.348Z,100235.09
2022-09-20T06:15:53.675Z,100242.22
2022-09-20T06:18:20.848Z,100245.81
2022-09-20T06:20:47.169Z,100245.81
2022-09-20T06:23:13.508Z,100246.59
2022-09-20T06:25:39.872Z,100255.31
2022-09-20T06:28:07.079Z,100252.53
2022-09-20T06:30:33.563Z,100259.69
2022-09-20T06:33:00.105Z,100256.13
2022-09-20T06:35:28.352Z,100266.03
2022-09-20T06:37:54.771Z,100265.25
2022-09-20T06:40:22.061Z,100275.16
2022-09-20T06:42:50.308Z,100270.81
2022-09-20T06:45:17.495Z,100272.81
2022-09-20T06:47:43.867Z,100274.41
2022-09-20T06:50:11.095Z,100275.19
2022-09-20T06:52:37.529Z,100279.63
2022-09-20T06:55:05.810Z,100278.09
2022-09-20T06:57:32.222Z,100286.47
2022-09-20T07:00:00.519Z,100287.63
2022-09-20T07:02:26.988Z,100291.63
2022-09-20T07:04:53.440Z,100292.81
2022-09-20T07:07:20.683Z,100295.19
2022-09-20T07:09:47.994Z,100295.59
2022-09-20T07:12:15.305Z,100303.16
2022-09-20T07:14:43.621Z,100290.00
2022-09-20T07:17:10.050Z,100300.75
2022-09-20T07:19:37.373Z,100305.94
2022-09-20T07:22:03.825Z,100305.94
2022-09-20T07:24:30.286Z,100308.31
2022-09-20T07:26:57.721Z,100314.25
2022-09-20T07:29:24.199Z,100317.84
2022-09-20T07:31:50.786Z,100317.44
2022-09-20T07:34:18.284Z,100321.03
2022-09-20T07:36:44.755Z,100315.47
2022-09-20T07:39:11.218Z,100325.00
2022-09-20T07:41:38.675Z,100323.41
2022-09-20T07:44:06.166Z,100332.91
2022-09-20T07:46:33.695Z,100330.53
2022-09-20T07:49:00.169Z,100333.69
2022-09-20T07:51:27.562Z,100334.91
2022-09-20T07:53:55.046Z,100339.25
2022-09-20T07:56:22.504Z,100333.69
2022-09-20T07:58:52.359Z,100344.41
2022-09-20T08:01:19.261Z,100342.41
2022-09-20T08:03:45.830Z,100343.63
2022-09-20T08:06:12.268Z,100348.78
2022-09-20T08:08:39.757Z,100345.59
2022-09-20T08:11:07.167Z,100345.19
2022-09-20T08:16:21.022Z,100350.34
2022-09-20T08:18:48.391Z,100349.56
2022-09-20T08:21:15.813Z,100353.50
2022-09-20T08:23:43.171Z,100353.13
2022-09-20T08:26:10.532Z,100361.06
2022-09-20T08:28:37.885Z,100356.28
2022-09-20T08:31:04.359Z,100357.88
2022-09-20T08:33:30.783Z,100355.91
2022-09-20T08:35:57.766Z,100362.25
2022-09-20T08:41:11.847Z,100368.97
2022-09-20T08:43:39.070Z,100363.81
2022-09-20T08:46:05.922Z,100364.22
2022-09-20T08:48:32.396Z,100368.19
2022-09-20T08:51:05.618Z,100367.00
2022-09-20T08:53:32.324Z,100367.00
2022-09-20T08:56:01.535Z,100371.75
2022-09-20T08:58:27.926Z,100368.19
2022-09-20T09:00:57.129Z,100378.50
2022-09-20T09:03:26.324Z,100376.53
2022-09-20T09:05:54.599Z,100372.16
2022-09-20T09:08:21.879Z,100374.16
2022-09-20T09:10:50.135Z,100380.47
2022-09-20T09:13:16.593Z,100386.44
2022-09-20T09:15:43.968Z,100382.06
2022-09-20T09:18:12.221Z,100378.91
2022-09-20T09:20:40.567Z,100378.91
2022-09-20T09:23:06.980Z,100384.06
2022-09-20T09:25:34.226Z,100387.63
2022-09-20T09:28:00.635Z,100389.63
2022-09-20T09:30:29.778Z,100384.84
2022-09-20T09:32:58.846Z,100391.59
2022-09-20T09:35:25.232Z,100388.81
2022-09-20T09:37:51.713Z,100395.16
2022-09-20T09:40:18.369Z,100388.78
2022-09-20T09:42:46.742Z,100388.78
2022-09-20T09:45:13.188Z,100386.38
2022-09-20T09:47:41.484Z,100387.97
2022-09-20T09:50:10.023Z,100391.94
2022-09-20T09:52:36.546Z,100387.16
2022-09-20T09:55:05.446Z,100394.25
2022-09-20T09:57:32.218Z,100391.50
2022-09-20T09:59:58.666Z,100398.66
2022-09-20T10:02:25.260Z,100401.41
2022-09-20T10:04:54.433Z,100393.09
2022-09-20T10:07:20.825Z,100395.41
2022-09-20T10:09:49.142Z,100395.44
2022-09-20T10:12:15.585Z,100398.63
2022-09-20T10:14:44.746Z,100399.41
2022-09-20T10:17:13.026Z,100397.84
2022-09-20T10:19:39.570Z,100391.84
2022-09-20T10:22:07.833Z,100395.03
2022-09-20T10:24:34.234Z,100391.88
2022-09-20T10:27:00.639Z,100400.22
2022-09-20T10:29:31.718Z,100393.09
2022-09-20T10:31:58.150Z,100396.22
2022-09-20T10:34:26.423Z,100394.66
2022-09-20T10:36:54.707Z,100397.03
2022-09-20T10:39:24.618Z,100387.13
2022-09-20T10:41:51.075Z,100396.25
2022-09-20T10:44:17.482Z,100386.69
2022-09-20T10:46:44.023Z,100386.66
2022-09-20T10:49:12.307Z,100387.41
2022-09-20T10:51:38.851Z,100387.41
2022-09-20T10:54:06.143Z,100391.78
2022-09-20T10:56:34.427Z,100386.19
2022-09-20T10:59:00.898Z,100386.22
2022-09-20T11:01:27.397Z,100398.13
2022-09-20T11:03:53.865Z,100393.34
2022-09-20T11:06:20.188Z,100395.31
2022-09-20T11:08:48.594Z,100383.34
2022-09-20T11:11:16.889Z,100382.25
2022-09-20T11:13:43.307Z,100386.16
2022-09-20T11:16:10.585Z,100391.31
2022-09-20T11:18:37.038Z,100384.19
2022-09-20T11:21:03.461Z,100388.19
2022-09-20T11:23:29.981Z,100380.22
2022-09-20T11:25:56.374Z,100392.53
2022-09-20T11:28:23.694Z,100383.41
2022-09-20T11:30:51.981Z,100391.34
2022-09-20T11:33:18.350Z,100387.81
2022-09-20T11:35:44.820Z,100389.00
2022-09-20T11:38:12.051Z,100391.75
2022-09-20T11:40:40.399Z,100389.75
2022-09-20T11:43:07.669Z,100387.00
2022-09-20T11:45:34.238Z,100390.97
2022-09-20T11:48:00.728Z,100391.75
2022-09-20T11:50:30.101Z,100393.31
2022-09-20T11:52:58.400Z,100389.34
2022-09-20T11:55:26.870Z,100388.53
2022-09-20T11:57:54.139Z,100392.09
2022-09-20T12:00:20.594Z,100390.94
2022-09-20T12:02:47.972Z,100395.31
2022-09-20T12:05:17.198Z,100388.16
2022-09-20T12:07:43.681Z,100385.38
2022-09-20T12:10:11.965Z,100392.53
2022-09-20T12:12:40.337Z,100378.63
2022-09-20T12:15:08.690Z,100390.53
2022-09-20T12:17:35.078Z,100391.69
2022-09-20T12:20:01.519Z,100384.97
2022-09-20T12:22:27.955Z,100387.34
2022-09-20T12:24:55.230Z,100384.56
2022-09-20T12:27:23.532Z,100386.16
2022-09-20T12:29:50.764Z,100376.66
2022-09-20T12:32:17.213Z,100370.31
2022-09-20T12:34:44.421Z,100377.06
2022-09-20T12:37:11.647Z,100377.88
2022-09-20T12:39:38.871Z,100379.09
2022-09-20T12:42:05.243Z,100377.13
2022-09-20T12:44:31.807Z,100375.16
2022-09-20T12:46:59.062Z,100380.31
2022-09-20T12:49:25.400Z,100371.16
2022-09-20T12:51:51.764Z,100372.41
2022-09-20T12:54:18.943Z,100369.22
2022-09-20T12:56:45.303Z,100371.59
2022-09-20T12:59:11.635Z,100371.19
2022-09-20T13:01:38.060Z,100365.63
2022-09-20T13:04:04.558Z,100369.22
2022-09-20T13:06:30.993Z,100376.72
2022-09-20T13:08:57.354Z,100372.78
2022-09-20T13:11:23.827Z,100372.78
2022-09-20T13:13:50.225Z,100381.53
2022-09-20T13:16:16.597Z,100390.66
2022-09-20T13:18:43.032Z,100401.78
2022-09-20T13:21:10.309Z,100400.63
2022-09-20T13:23:36.683Z,100399.44
2022-09-20T13:26:03.017Z,100402.22
2022-09-20T13:28:29.320Z,100409.75
2022-09-20T13:30:55.641Z,100426.41
2022-09-20T13:33:21.987Z,100434.31
2022-09-20T13:35:48.329Z,100442.25
2022-09-20T13:38:15.541Z,100436.69
2022-09-20T13:40:41.890Z,100438.31
2022-09-20T13:43:23.509Z,100436.31
2022-09-20T13:45:50.657Z,100444.66
2022-09-20T13:48:17.066Z,100432.31
2022-09-20T13:50:47.168Z,100428.34
2022-09-20T13:53:28.089Z,100406.91
2022-09-20T13:56:02.991Z,100394.22
2022-09-20T13:58:29.359Z,100400.94
2022-09-20T14:00:55.693Z,100402.94
2022-09-20T14:03:22.031Z,100402.16
2022-09-20T14:05:48.371Z,100396.59
2022-09-20T14:08:14.835Z,100399.38
2022-09-20T14:10:41.173Z,100408.91
2022-09-20T14:13:07.493Z,100397.00
2022-09-20T14:15:33.853Z,100404.53
2022-09-20T14:18:00.205Z,100399.78
2022-09-20T14:20:26.569Z,100398.56
2022-09-20T14:22:56.084Z,100393.00
2022-09-20T14:25:25.351Z,100391.44
2022-09-20T14:27:51.714Z,100395.00
2022-09-20T14:30:18.077Z,100398.56
2022-09-20T14:32:44.449Z,100397.00
2022-09-20T14:35:10.933Z,100404.53
2022-09-20T14:37:37.286Z,100397.78
2022-09-20T14:40:03.756Z,100397.78
2022-09-20T14:42:30.183Z,100417.25
2022-09-20T14:44:56.497Z,100410.91
2022-09-20T14:47:22.809Z,100420.03
2022-09-20T14:49:49.128Z,100439.47
2022-09-20T14:52:15.468Z,100445.03
2022-09-20T14:54:41.807Z,100446.22
2022-09-20T14:57:08.164Z,100446.63
2022-09-20T14:59:34.493Z,100447.44
2022-09-20T15:02:01.012Z,100437.88
2022-09-20T15:04:27.384Z,100447.81
2022-09-20T15:06:53.729Z,100439.47
2022-09-20T15:09:20.042Z,100447.03
2022-09-20T15:11:46.384Z,100451.38
2022-09-20T15:14:13.592Z,100449.41
2022-09-20T15:16:39.971Z,100454.16
2022-09-20T15:19:06.787Z,100466.09
2022-09-20T15:21:33.265Z,100457.75
2022-09-20T15:23:59.589Z,100464.09
2022-09-20T15:26:25.994Z,100464.09
2022-09-20T15:28:52.358Z,100454.16
2022-09-20T15:31:18.883Z,100455.75
2022-09-20T15:33:45.201Z,100460.53
2022-09-20T15:36:11.618Z,100461.31
2022-09-20T15:38:38.419Z,100480.78
2022-09-20T15:41:04.857Z,100478.00
2022-09-20T15:43:31.221Z,100480.78
2022-09-20T15:45:57.619Z,100478.78
2022-09-20T15:48:23.998Z,100486.34
2022-09-20T15:50:50.530Z,100480.00
2022-09-20T15:53:17.101Z,100481.56
2022-09-20T15:55:43.625Z,100478.78
2022-09-20T15:58:09.997Z,100475.22
2022-09-20T16:00:36.358Z,100478.78
2022-09-20T16:03:03.134Z,100478.78
2022-09-20T16:05:29.911Z,100476.81
2022-09-20T16:07:56.454Z,100479.59
2022-09-20T16:10:23.018Z,100482.38
2022-09-20T16:12:49.606Z,100483.94
2022-09-20T16:15:18.883Z,100483.16
2022-09-20T16:17:45.434Z,100492.28
2022-09-20T16:20:12.159Z,100485.94
2022-09-20T16:22:38.978Z,100492.69
2022-09-20T16:25:05.852Z,100490.72
2022-09-20T16:27:32.567Z,100489.50
2022-09-20T16:29:59.273Z,100482.38
2022-09-20T16:32:25.927Z,100474.03
2022-09-20T16:34:52.579Z,100481.16
2022-09-20T16:37:19.431Z,100485.16
2022-09-20T16:39:46.513Z,100479.97
2022-09-20T16:42:13.478Z,100477.59
2022-09-20T16:44:40.916Z,100472.81
2022-09-20T16:47:07.884Z,100484.72
2022-09-20T16:49:34.632Z,100490.28
2022-09-20T16:52:01.294Z,100488.31
2022-09-20T16:54:31.716Z,100491.09
2022-09-20T16:56:58.864Z,100499.44
2022-09-20T16:59:25.761Z,100502.22
2022-09-20T17:01:52.275Z,100502.22
2022-09-20T17:04:19.235Z,100513.34
2022-09-20T17:06:46.272Z,100511.34
2022-09-20T17:09:13.108Z,100511.34
2022-09-20T17:11:39.855Z,100519.69
2022-09-20T17:14:06.819Z,100514.13
2022-09-20T17:16:33.578Z,100518.91
2022-09-20T17:19:00.555Z,100521.69
2022-09-20T17:21:27.427Z,100531.59
2022-09-20T17:23:54.443Z,100530.81
2022-09-20T17:26:21.568Z,100539.94
2022-09-20T17:28:51.636Z,100549.09
2022-09-20T17:31:18.579Z,100541.13
2022-09-20T17:33:45.112Z,100543.53
2022-09-20T17:36:11.501Z,100543.09
2022-09-20T17:38:37.845Z,100539.53
2022-09-20T17:41:04.198Z,100544.28
2022-09-20T17:43:30.562Z,100545.88
2022-09-20T17:45:56.936Z,100549.44
2022-09-20T17:48:23.307Z,100553.03
2022-09-20T17:50:49.704Z,100552.63
2022-09-20T17:53:16.060Z,100553.00
2022-09-20T17:55:42.430Z,100555.78
2022-09-20T17:58:08.795Z,100560.94
2022-09-20T18:00:37.940Z,100560.56
2022-09-20T18:03:05.078Z,100562.94
2022-09-20T18:05:31.482Z,100560.16
2022-09-20T18:07:58.050Z,100563.31
2022-09-20T18:10:24.439Z,100563.31
2022-09-20T18:12:50.773Z,100567.72
2022-09-20T18:15:17.245Z,100572.88
2022-09-20T18:17:43.648Z,100573.66
2022-09-20T18:20:10.064Z,100577.22
2022-09-20T18:22:36.472Z,100572.44
2022-09-20T18:25:03.003Z,100574.03
2022-09-20T18:27:32.385Z,100579.22
2022-09-20T18:29:59.103Z,100580.00
2022-09-20T18:32:25.674Z,100583.59
2022-09-20T18:34:55.033Z,100592.72
2022-09-20T18:37:21.643Z,100587.94
2022-09-20T18:39:48.400Z,100592.72
2022-09-20T18:42:15.883Z,100600.28
2022-09-20T18:44:42.389Z,100600.28
2022-09-20T18:47:08.933Z,100605.84
2022-09-20T18:49:35.471Z,100603.06
2022-09-20T18:52:02.066Z,100607.41
2022-09-20T18:54:28.540Z,100614.19
2022-09-20T18:56:55.505Z,100612.19
2022-09-20T18:59:21.995Z,100612.97
2022-09-20T19:01:48.598Z,100612.56
2022-09-20T19:04:15.326Z,100609.78
2022-09-20T19:06:41.812Z,100616.13
2022-09-20T19:09:08.360Z,100620.91
2022-09-20T19:11:34.693Z,100622.91
2022-09-20T19:14:01.003Z,100620.13
2022-09-20T19:16:27.490Z,100617.72
2022-09-20T19:18:56.709Z,100623.69
2022-09-20T19:21:25.883Z,100627.69
2022-09-20T19:23:55.000Z,100630.47
2022-09-20T19:26:21.441Z,100628.47
2022-09-20T19:28:47.736Z,100628.47
2022-09-20T19:31:14.089Z,100622.91
2022-09-20T19:33:40.496Z,100633.63
2022-09-20T19:36:06.798Z,100624.06
2022-09-20T19:38:35.966Z,100629.63
2022-09-20T19:41:05.065Z,100631.22
2022-09-20T19:43:31.351Z,100629.25
2022-09-20T19:46:00.446Z,100630.84
2022-09-20T19:48:29.559Z,100637.59
2022-09-20T19:50:55.835Z,100630.03
2022-09-20T19:53:24.952Z,100635.19
2022-09-20T19:55:54.053Z,100631.63
2022-09-20T19:58:20.582Z,100636.00
2022-09-20T20:00:49.675Z,100643.53
2022-09-20T20:03:18.786Z,100645.91
2022-09-20T20:05:47.897Z,100639.56
2022-09-20T20:08:14.188Z,100643.94
2022-09-20T20:10:40.550Z,100655.88
2022-09-20T20:13:06.895Z,100642.75
2022-09-20T20:15:33.302Z,100643.94
2022-09-20T20:17:59.607Z,100647.91
2022-09-20T20:20:28.714Z,100648.31
2022-09-20T20:22:55.037Z,100655.88
2022-09-20T20:25:21.376Z,100651.09
2022-09-20T20:27:50.515Z,100654.66
2022-09-20T20:30:16.808Z,100656.25
2022-09-20T20:32:45.934Z,100655.88
2022-09-20T20:35:12.251Z,100660.63
2022-09-20T20:37:41.349Z,100664.19
2022-09-20T20:40:10.492Z,100664.19
2022-09-20T20:42:36.831Z,100661.41
2022-09-20T20:45:03.102Z,100661.81
2022-09-20T20:47:29.431Z,100658.25
2022-09-20T20:49:55.771Z,100659.44
2022-09-20T20:52:24.916Z,100657.47
2022-09-20T20:54:51.219Z,100659.81
2022-09-20T20:57:17.518Z,100660.22
2022-09-20T20:59:43.817Z,100664.19
2022-09-20T21:02:12.918Z,100664.97
2022-09-20T21:04:39.228Z,100672.16
2022-09-20T21:07:05.556Z,100668.59
2022-09-20T21:09:31.945Z,100672.53
2022-09-20T21:11:58.330Z,100669.38
2022-09-20T21:14:24.709Z,100674.91
2022-09-20T21:16:51.073Z,100678.81
2022-09-20T21:19:17.454Z,100677.66
2022-09-20T21:24:10.136Z,100668.06
2022-09-20T21:26:36.506Z,100679.22
2022-09-20T21:29:02.812Z,100674.44
2022-09-20T21:31:29.192Z,100678.38
2022-09-20T21:33:55.534Z,100674.81
2022-09-20T21:36:21.854Z,100674.44
2022-09-20T21:38:48.242Z,100673.59
2022-09-20T21:41:14.578Z,100682.03
2022-09-20T21:43:40.906Z,100679.31
2022-09-20T21:46:07.268Z,100684.47
2022-09-20T21:48:33.612Z,100683.31
2022-09-20T21:50:59.950Z,100679.31
2022-09-20T21:53:26.288Z,100684.09
2022-09-20T21:55:52.596Z,100688.88
2022-09-20T21:58:18.921Z,100686.50
2022-09-20T22:00:45.261Z,100684.13
2022-09-20T22:03:11.602Z,100684.88
2022-09-20T22:05:37.930Z,100692.06
2022-09-20T22:08:04.259Z,100691.25
2022-09-20T22:10:30.787Z,100694.03
2022-09-20T22:12:57.125Z,100698.81
2022-09-20T22:15:23.438Z,100701.59
2022-09-20T22:17:49.778Z,100705.56
2022-09-20T22:20:16.105Z,100706.75
2022-09-20T22:22:42.433Z,100709.94
2022-09-20T22:25:08.768Z,100707.94
2022-09-20T22:27:35.112Z,100705.56
2022-09-20T22:30:04.785Z,100704.00
2022-09-20T22:32:31.448Z,100704.38
2022-09-20T22:34:57.749Z,100700.00
2022-09-20T22:37:24.034Z,100700.78
2022-09-20T22:39:50.372Z,100704.00
2022-09-20T22:42:16.704Z,100700.78
2022-09-20T22:44:43.085Z,100695.22
2022-09-20T22:47:10.281Z,100693.22
2022-09-20T22:49:36.594Z,100693.66
2022-09-20T22:52:02.948Z,100702.38
2022-09-20T22:54:29.274Z,100693.22
2022-09-20T22:56:55.595Z,100692.84
2022-09-20T22:59:21.942Z,100696.00
2022-09-20T23:01:48.250Z,100698.41
2022-09-20T23:04:15.459Z,100692.84
2022-09-20T23:06:41.799Z,100700.78
2022-09-20T23:09:08.268Z,100691.28
2022-09-20T23:11:34.649Z,100695.22
2022-09-20T23:14:00.978Z,100697.22
2022-09-20T23:16:27.349Z,100693.22
2022-09-20T23:18:53.678Z,100697.22
2022-09-20T23:21:20.871Z,100701.56
2022-09-20T23:23:47.198Z,100704.34
2022-09-20T23:26:13.531Z,100702.78
2022-09-20T23:28:39.860Z,100705.13
2022-09-20T23:31:06.288Z,100699.19
2022-09-20T23:33:32.622Z,100704.72
2022-09-20T23:35:58.958Z,100709.91
2022-09-20T23:38:25.283Z,100707.50
2022-09-20T23:40:51.609Z,100708.28
2022-09-20T23:43:17.954Z,100703.50
2022-09-20T23:45:44.338Z,100709.47
2022-09-20T23:48:10.738Z,100705.47
2022-09-20T23:50:37.073Z,100709.13
2022-09-20T23:53:03.439Z,100700.38
2022-09-20T23:55:29.772Z,100710.66
2022-09-20T23:57:56.096Z,100711.44
